sensor_id;sensor_type;location;lat;lon;timestamp;P1;durP1;ratioP1;P2;durP2;ratioP2
76852;SDS011;65825;52.232;10.566;2023-06-14T00:01:16;5.05;;;3.70;;
76852;SDS011;65825;52.232;10.566;2023-06-14T00:03:41;5.25;;;3.70;;
76852;SDS011;65825;52.232;10.566;2023-06-14T00:06:07;6.28;;;3.78;;
76852;SDS011;65825;52.232;10.566;2023-06-14T00:08:35;5.10;;;3.42;;
76852;SDS011;65825;52.232;10.566;2023-06-14T00:11:00;6.33;;;3.87;;
76852;SDS011;65825;52.232;10.566;2023-06-14T00:13:25;6.57;;;3.90;;
76852;SDS011;65825;52.232;10.566;2023-06-14T00:15:50;7.13;;;3.50;;
76852;SDS011;65825;52.232;10.566;2023-06-14T00:18:19;5.93;;;3.70;;
76852;SDS011;65825;52.232;10.566;2023-06-14T00:20:51;5.85;;;3.53;;
76852;SDS011;65825;52.232;10.566;2023-06-14T00:23:17;5.68;;;3.35;;
76852;SDS011;65825;52.232;10.566;2023-06-14T00:25:42;9.15;;;3.60;;
76852;SDS011;65825;52.232;10.566;2023-06-14T00:28:10;10.35;;;4.20;;
76852;SDS011;65825;52.232;10.566;2023-06-14T00:30:35;5.43;;;3.17;;
76852;SDS011;65825;52.232;10.566;2023-06-14T00:33:00;8.00;;;3.60;;
76852;SDS011;65825;52.232;10.566;2023-06-14T00:35:26;5.32;;;3.53;;
76852;SDS011;65825;52.232;10.566;2023-06-14T00:37:51;7.10;;;3.65;;
76852;SDS011;65825;52.232;10.566;2023-06-14T00:40:17;7.55;;;3.83;;
76852;SDS011;65825;52.232;10.566;2023-06-14T00:42:42;7.82;;;4.22;;
76852;SDS011;65825;52.232;10.566;2023-06-14T00:45:09;6.65;;;3.58;;
76852;SDS011;65825;52.232;10.566;2023-06-14T00:47:37;10.07;;;3.55;;
76852;SDS011;65825;52.232;10.566;2023-06-14T00:50:07;6.07;;;3.70;;
76852;SDS011;65825;52.232;10.566;2023-06-14T00:52:34;6.05;;;3.28;;
76852;SDS011;65825;52.232;10.566;2023-06-14T00:55:00;6.55;;;3.38;;
76852;SDS011;65825;52.232;10.566;2023-06-14T00:57:26;5.75;;;3.55;;
76852;SDS011;65825;52.232;10.566;2023-06-14T00:59:54;7.63;;;3.58;;
76852;SDS011;65825;52.232;10.566;2023-06-14T01:02:20;5.78;;;3.30;;
76852;SDS011;65825;52.232;10.566;2023-06-14T01:04:46;6.70;;;3.40;;
76852;SDS011;65825;52.232;10.566;2023-06-14T01:12:35;7.38;;;3.00;;
76852;SDS011;65825;52.232;10.566;2023-06-14T01:15:08;4.97;;;3.10;;
76852;SDS011;65825;52.232;10.566;2023-06-14T01:17:35;6.07;;;3.10;;
76852;SDS011;65825;52.232;10.566;2023-06-14T01:20:06;5.25;;;3.25;;
76852;SDS011;65825;52.232;10.566;2023-06-14T01:22:35;5.40;;;2.95;;
76852;SDS011;65825;52.232;10.566;2023-06-14T01:25:02;5.30;;;3.05;;
76852;SDS011;65825;52.232;10.566;2023-06-14T01:27:29;6.88;;;3.17;;
76852;SDS011;65825;52.232;10.566;2023-06-14T01:29:57;5.45;;;3.03;;
76852;SDS011;65825;52.232;10.566;2023-06-14T01:32:24;4.72;;;3.17;;
76852;SDS011;65825;52.232;10.566;2023-06-14T01:34:52;5.65;;;2.90;;
76852;SDS011;65825;52.232;10.566;2023-06-14T01:37:17;5.25;;;2.88;;
76852;SDS011;65825;52.232;10.566;2023-06-14T01:39:44;6.32;;;3.00;;
76852;SDS011;65825;52.232;10.566;2023-06-14T01:42:10;4.80;;;2.90;;
76852;SDS011;65825;52.232;10.566;2023-06-14T01:47:59;6.32;;;2.70;;
76852;SDS011;65825;52.232;10.566;2023-06-14T01:50:27;4.45;;;2.40;;
76852;SDS011;65825;52.232;10.566;2023-06-14T01:52:55;6.38;;;2.90;;
76852;SDS011;65825;52.232;10.566;2023-06-14T01:55:20;5.05;;;2.88;;
76852;SDS011;65825;52.232;10.566;2023-06-14T01:57:46;5.55;;;2.65;;
76852;SDS011;65825;52.232;10.566;2023-06-14T02:00:12;9.30;;;3.05;;
76852;SDS011;65825;52.232;10.566;2023-06-14T02:02:39;7.03;;;2.85;;
76852;SDS011;65825;52.232;10.566;2023-06-14T02:05:05;5.55;;;2.78;;
76852;SDS011;65825;52.232;10.566;2023-06-14T02:07:31;3.97;;;2.47;;
76852;SDS011;65825;52.232;10.566;2023-06-14T02:09:56;5.07;;;2.80;;
76852;SDS011;65825;52.232;10.566;2023-06-14T02:12:21;8.47;;;2.90;;
76852;SDS011;65825;52.232;10.566;2023-06-14T02:14:47;7.23;;;3.90;;
76852;SDS011;65825;52.232;10.566;2023-06-14T02:19:38;4.80;;;3.00;;
76852;SDS011;65825;52.232;10.566;2023-06-14T02:22:04;5.43;;;3.17;;
76852;SDS011;65825;52.232;10.566;2023-06-14T02:24:29;5.28;;;3.00;;
76852;SDS011;65825;52.232;10.566;2023-06-14T02:26:54;8.05;;;3.13;;
76852;SDS011;65825;52.232;10.566;2023-06-14T02:29:20;5.60;;;3.20;;
76852;SDS011;65825;52.232;10.566;2023-06-14T02:31:46;6.25;;;3.47;;
76852;SDS011;65825;52.232;10.566;2023-06-14T02:34:13;7.13;;;3.72;;
76852;SDS011;65825;52.232;10.566;2023-06-14T02:36:39;7.78;;;3.65;;
76852;SDS011;65825;52.232;10.566;2023-06-14T02:39:06;7.72;;;2.95;;
76852;SDS011;65825;52.232;10.566;2023-06-14T02:41:32;6.07;;;3.00;;
76852;SDS011;65825;52.232;10.566;2023-06-14T02:43:57;5.70;;;3.40;;
76852;SDS011;65825;52.232;10.566;2023-06-14T02:46:23;9.40;;;3.20;;
76852;SDS011;65825;52.232;10.566;2023-06-14T02:48:48;8.80;;;3.77;;
76852;SDS011;65825;52.232;10.566;2023-06-14T02:51:14;7.50;;;3.80;;
76852;SDS011;65825;52.232;10.566;2023-06-14T02:53:39;4.60;;;3.10;;
76852;SDS011;65825;52.232;10.566;2023-06-14T02:56:05;4.63;;;3.20;;
76852;SDS011;65825;52.232;10.566;2023-06-14T02:58:31;5.82;;;3.45;;
76852;SDS011;65825;52.232;10.566;2023-06-14T03:00:56;7.38;;;3.67;;
76852;SDS011;65825;52.232;10.566;2023-06-14T03:03:21;6.45;;;3.55;;
76852;SDS011;65825;52.232;10.566;2023-06-14T03:05:49;8.60;;;4.10;;
76852;SDS011;65825;52.232;10.566;2023-06-14T03:08:16;5.45;;;3.65;;
76852;SDS011;65825;52.232;10.566;2023-06-14T03:10:45;6.40;;;3.33;;
76852;SDS011;65825;52.232;10.566;2023-06-14T03:13:12;5.00;;;3.22;;
76852;SDS011;65825;52.232;10.566;2023-06-14T03:18:07;6.25;;;3.33;;
76852;SDS011;65825;52.232;10.566;2023-06-14T03:20:33;5.78;;;3.40;;
76852;SDS011;65825;52.232;10.566;2023-06-14T03:23:02;6.43;;;3.38;;
76852;SDS011;65825;52.232;10.566;2023-06-14T03:25:28;5.55;;;3.40;;
76852;SDS011;65825;52.232;10.566;2023-06-14T03:27:58;7.55;;;3.72;;
76852;SDS011;65825;52.232;10.566;2023-06-14T03:30:23;5.20;;;3.17;;
76852;SDS011;65825;52.232;10.566;2023-06-14T03:32:49;6.90;;;3.88;;
76852;SDS011;65825;52.232;10.566;2023-06-14T03:35:16;6.40;;;3.45;;
76852;SDS011;65825;52.232;10.566;2023-06-14T03:37:45;5.97;;;3.00;;
76852;SDS011;65825;52.232;10.566;2023-06-14T03:40:12;5.78;;;3.30;;
76852;SDS011;65825;52.232;10.566;2023-06-14T03:42:38;6.28;;;3.28;;
76852;SDS011;65825;52.232;10.566;2023-06-14T03:45:04;7.57;;;3.42;;
76852;SDS011;65825;52.232;10.566;2023-06-14T03:47:31;5.78;;;3.70;;
76852;SDS011;65825;52.232;10.566;2023-06-14T03:49:56;5.50;;;3.38;;
76852;SDS011;65825;52.232;10.566;2023-06-14T03:52:21;5.43;;;3.83;;
76852;SDS011;65825;52.232;10.566;2023-06-14T03:54:48;5.43;;;3.70;;
76852;SDS011;65825;52.232;10.566;2023-06-14T03:57:13;6.45;;;3.72;;
76852;SDS011;65825;52.232;10.566;2023-06-14T03:59:39;6.55;;;3.55;;
76852;SDS011;65825;52.232;10.566;2023-06-14T04:02:04;5.50;;;3.40;;
76852;SDS011;65825;52.232;10.566;2023-06-14T04:04:29;6.65;;;3.70;;
76852;SDS011;65825;52.232;10.566;2023-06-14T04:06:55;6.13;;;3.35;;
76852;SDS011;65825;52.232;10.566;2023-06-14T04:09:22;7.53;;;3.50;;
76852;SDS011;65825;52.232;10.566;2023-06-14T04:11:49;6.18;;;3.20;;
76852;SDS011;65825;52.232;10.566;2023-06-14T04:14:15;5.55;;;3.40;;
76852;SDS011;65825;52.232;10.566;2023-06-14T04:16:40;6.83;;;3.20;;
76852;SDS011;65825;52.232;10.566;2023-06-14T04:19:05;5.23;;;3.23;;
76852;SDS011;65825;52.232;10.566;2023-06-14T04:21:31;7.20;;;3.27;;
76852;SDS011;65825;52.232;10.566;2023-06-14T04:23:56;6.30;;;3.33;;
76852;SDS011;65825;52.232;10.566;2023-06-14T04:26:21;5.60;;;3.53;;
76852;SDS011;65825;52.232;10.566;2023-06-14T04:28:48;7.10;;;3.40;;
76852;SDS011;65825;52.232;10.566;2023-06-14T04:31:17;7.80;;;3.40;;
76852;SDS011;65825;52.232;10.566;2023-06-14T04:33:43;5.65;;;3.05;;
76852;SDS011;65825;52.232;10.566;2023-06-14T04:36:09;6.30;;;3.30;;
76852;SDS011;65825;52.232;10.566;2023-06-14T04:38:37;7.95;;;3.90;;
76852;SDS011;65825;52.232;10.566;2023-06-14T04:41:02;4.95;;;3.30;;
76852;SDS011;65825;52.232;10.566;2023-06-14T04:43:28;9.63;;;3.60;;
76852;SDS011;65825;52.232;10.566;2023-06-14T04:45:53;7.45;;;3.20;;
76852;SDS011;65825;52.232;10.566;2023-06-14T04:48:19;5.75;;;3.30;;
76852;SDS011;65825;52.232;10.566;2023-06-14T04:50:45;6.95;;;3.78;;
76852;SDS011;65825;52.232;10.566;2023-06-14T04:53:11;6.93;;;3.65;;
76852;SDS011;65825;52.232;10.566;2023-06-14T04:55:36;5.82;;;3.13;;
76852;SDS011;65825;52.232;10.566;2023-06-14T04:58:02;5.22;;;3.22;;
76852;SDS011;65825;52.232;10.566;2023-06-14T05:00:28;6.03;;;3.15;;
76852;SDS011;65825;52.232;10.566;2023-06-14T05:02:55;5.32;;;3.20;;
76852;SDS011;65825;52.232;10.566;2023-06-14T05:05:23;6.97;;;3.45;;
76852;SDS011;65825;52.232;10.566;2023-06-14T05:07:49;6.65;;;2.95;;
76852;SDS011;65825;52.232;10.566;2023-06-14T05:10:14;7.78;;;3.40;;
76852;SDS011;65825;52.232;10.566;2023-06-14T05:12:40;5.13;;;3.13;;
76852;SDS011;65825;52.232;10.566;2023-06-14T05:15:05;5.13;;;3.13;;
76852;SDS011;65825;52.232;10.566;2023-06-14T05:17:31;5.00;;;2.80;;
76852;SDS011;65825;52.232;10.566;2023-06-14T05:19:56;6.00;;;3.10;;
76852;SDS011;65825;52.232;10.566;2023-06-14T05:22:22;8.30;;;3.13;;
76852;SDS011;65825;52.232;10.566;2023-06-14T05:24:50;6.75;;;3.38;;
76852;SDS011;65825;52.232;10.566;2023-06-14T05:27:16;7.28;;;3.25;;
76852;SDS011;65825;52.232;10.566;2023-06-14T05:29:41;5.85;;;3.40;;
76852;SDS011;65825;52.232;10.566;2023-06-14T05:32:07;7.80;;;3.17;;
76852;SDS011;65825;52.232;10.566;2023-06-14T05:34:32;7.43;;;3.38;;
76852;SDS011;65825;52.232;10.566;2023-06-14T05:36:57;9.60;;;3.57;;
76852;SDS011;65825;52.232;10.566;2023-06-14T05:39:23;8.18;;;3.60;;
76852;SDS011;65825;52.232;10.566;2023-06-14T05:41:51;7.13;;;3.25;;
76852;SDS011;65825;52.232;10.566;2023-06-14T05:44:16;6.13;;;4.10;;
76852;SDS011;65825;52.232;10.566;2023-06-14T05:46:41;6.72;;;3.95;;
76852;SDS011;65825;52.232;10.566;2023-06-14T05:49:06;11.50;;;3.90;;
76852;SDS011;65825;52.232;10.566;2023-06-14T05:51:32;8.50;;;3.97;;
76852;SDS011;65825;52.232;10.566;2023-06-14T05:53:57;6.18;;;3.60;;
76852;SDS011;65825;52.232;10.566;2023-06-14T05:56:23;9.48;;;3.60;;
76852;SDS011;65825;52.232;10.566;2023-06-14T05:58:48;6.05;;;3.63;;
76852;SDS011;65825;52.232;10.566;2023-06-14T06:01:14;7.18;;;3.50;;
76852;SDS011;65825;52.232;10.566;2023-06-14T06:03:40;6.38;;;3.85;;
76852;SDS011;65825;52.232;10.566;2023-06-14T06:06:05;5.38;;;3.58;;
76852;SDS011;65825;52.232;10.566;2023-06-14T06:08:30;6.60;;;3.58;;
76852;SDS011;65825;52.232;10.566;2023-06-14T06:10:56;6.80;;;3.35;;
76852;SDS011;65825;52.232;10.566;2023-06-14T06:13:21;6.60;;;3.60;;
76852;SDS011;65825;52.232;10.566;2023-06-14T06:15:47;6.93;;;3.20;;
76852;SDS011;65825;52.232;10.566;2023-06-14T06:18:12;5.60;;;3.70;;
76852;SDS011;65825;52.232;10.566;2023-06-14T06:20:37;7.00;;;3.57;;
76852;SDS011;65825;52.232;10.566;2023-06-14T06:23:02;7.73;;;3.90;;
76852;SDS011;65825;52.232;10.566;2023-06-14T06:25:28;6.25;;;3.70;;
76852;SDS011;65825;52.232;10.566;2023-06-14T06:27:54;6.55;;;3.67;;
76852;SDS011;65825;52.232;10.566;2023-06-14T06:30:21;5.80;;;3.60;;
76852;SDS011;65825;52.232;10.566;2023-06-14T06:32:47;4.88;;;3.17;;
76852;SDS011;65825;52.232;10.566;2023-06-14T06:35:12;9.02;;;3.50;;
76852;SDS011;65825;52.232;10.566;2023-06-14T06:37:38;6.63;;;3.45;;
76852;SDS011;65825;52.232;10.566;2023-06-14T06:42:30;5.85;;;3.28;;
76852;SDS011;65825;52.232;10.566;2023-06-14T06:44:56;5.00;;;3.35;;
76852;SDS011;65825;52.232;10.566;2023-06-14T06:47:22;5.57;;;3.85;;
76852;SDS011;65825;52.232;10.566;2023-06-14T06:49:47;5.93;;;3.57;;
76852;SDS011;65825;52.232;10.566;2023-06-14T06:52:12;6.82;;;3.50;;
76852;SDS011;65825;52.232;10.566;2023-06-14T06:54:38;6.80;;;3.50;;
76852;SDS011;65825;52.232;10.566;2023-06-14T06:57:03;5.77;;;3.43;;
76852;SDS011;65825;52.232;10.566;2023-06-14T06:59:28;6.35;;;3.20;;
76852;SDS011;65825;52.232;10.566;2023-06-14T07:01:54;5.90;;;3.78;;
76852;SDS011;65825;52.232;10.566;2023-06-14T07:04:19;5.65;;;3.83;;
76852;SDS011;65825;52.232;10.566;2023-06-14T07:06:45;5.15;;;3.42;;
76852;SDS011;65825;52.232;10.566;2023-06-14T07:09:12;5.63;;;3.00;;
76852;SDS011;65825;52.232;10.566;2023-06-14T07:11:39;4.57;;;2.97;;
76852;SDS011;65825;52.232;10.566;2023-06-14T07:14:04;6.63;;;3.05;;
76852;SDS011;65825;52.232;10.566;2023-06-14T07:16:30;4.80;;;3.13;;
76852;SDS011;65825;52.232;10.566;2023-06-14T07:18:55;7.53;;;3.22;;
76852;SDS011;65825;52.232;10.566;2023-06-14T07:21:20;5.60;;;3.35;;
76852;SDS011;65825;52.232;10.566;2023-06-14T07:23:46;5.72;;;3.15;;
76852;SDS011;65825;52.232;10.566;2023-06-14T07:26:12;6.25;;;3.28;;
76852;SDS011;65825;52.232;10.566;2023-06-14T07:28:37;5.23;;;3.47;;
76852;SDS011;65825;52.232;10.566;2023-06-14T07:31:02;5.90;;;3.10;;
76852;SDS011;65825;52.232;10.566;2023-06-14T07:33:27;5.00;;;2.90;;
76852;SDS011;65825;52.232;10.566;2023-06-14T07:35:53;3.95;;;2.83;;
76852;SDS011;65825;52.232;10.566;2023-06-14T07:38:18;6.27;;;3.23;;
76852;SDS011;65825;52.232;10.566;2023-06-14T07:40:43;4.93;;;2.70;;
76852;SDS011;65825;52.232;10.566;2023-06-14T07:43:08;4.43;;;2.80;;
76852;SDS011;65825;52.232;10.566;2023-06-14T07:45:34;5.50;;;2.83;;
76852;SDS011;65825;52.232;10.566;2023-06-14T07:47:59;4.57;;;2.77;;
76852;SDS011;65825;52.232;10.566;2023-06-14T07:50:24;7.82;;;2.83;;
76852;SDS011;65825;52.232;10.566;2023-06-14T07:52:50;5.22;;;3.08;;
76852;SDS011;65825;52.232;10.566;2023-06-14T07:55:15;7.15;;;2.70;;
76852;SDS011;65825;52.232;10.566;2023-06-14T07:57:41;7.10;;;3.10;;
76852;SDS011;65825;52.232;10.566;2023-06-14T08:00:07;7.05;;;2.88;;
76852;SDS011;65825;52.232;10.566;2023-06-14T08:02:35;5.22;;;3.17;;
76852;SDS011;65825;52.232;10.566;2023-06-14T08:05:00;4.93;;;3.20;;
76852;SDS011;65825;52.232;10.566;2023-06-14T08:09:51;5.70;;;3.00;;
76852;SDS011;65825;52.232;10.566;2023-06-14T08:12:16;4.73;;;3.00;;
76852;SDS011;65825;52.232;10.566;2023-06-14T08:17:07;6.43;;;3.05;;
76852;SDS011;65825;52.232;10.566;2023-06-14T08:19:32;8.00;;;2.87;;
76852;SDS011;65825;52.232;10.566;2023-06-14T08:24:23;7.47;;;2.83;;
76852;SDS011;65825;52.232;10.566;2023-06-14T08:26:53;4.95;;;2.90;;
76852;SDS011;65825;52.232;10.566;2023-06-14T08:31:44;5.18;;;2.90;;
76852;SDS011;65825;52.232;10.566;2023-06-14T08:36:35;5.07;;;2.80;;
76852;SDS011;65825;52.232;10.566;2023-06-14T08:39:01;5.80;;;3.10;;
76852;SDS011;65825;52.232;10.566;2023-06-14T08:43:54;4.35;;;2.90;;
76852;SDS011;65825;52.232;10.566;2023-06-14T08:46:20;5.20;;;2.83;;
76852;SDS011;65825;52.232;10.566;2023-06-14T08:48:48;7.75;;;3.00;;
76852;SDS011;65825;52.232;10.566;2023-06-14T08:51:16;4.78;;;3.08;;
76852;SDS011;65825;52.232;10.566;2023-06-14T08:53:43;4.82;;;2.70;;
76852;SDS011;65825;52.232;10.566;2023-06-14T08:56:09;5.53;;;2.75;;
76852;SDS011;65825;52.232;10.566;2023-06-14T08:58:38;4.20;;;2.67;;
76852;SDS011;65825;52.232;10.566;2023-06-14T09:01:08;5.15;;;2.75;;
76852;SDS011;65825;52.232;10.566;2023-06-14T09:03:37;6.30;;;2.95;;
76852;SDS011;65825;52.232;10.566;2023-06-14T09:06:05;3.67;;;2.58;;
76852;SDS011;65825;52.232;10.566;2023-06-14T09:08:33;5.57;;;2.80;;
76852;SDS011;65825;52.232;10.566;2023-06-14T09:11:00;4.10;;;2.78;;
76852;SDS011;65825;52.232;10.566;2023-06-14T09:13:26;4.38;;;2.70;;
76852;SDS011;65825;52.232;10.566;2023-06-14T09:15:52;6.03;;;2.97;;
76852;SDS011;65825;52.232;10.566;2023-06-14T09:18:17;3.50;;;2.70;;
76852;SDS011;65825;52.232;10.566;2023-06-14T09:20:46;3.88;;;2.60;;
76852;SDS011;65825;52.232;10.566;2023-06-14T09:23:12;9.27;;;2.83;;
76852;SDS011;65825;52.232;10.566;2023-06-14T09:25:41;4.93;;;2.50;;
76852;SDS011;65825;52.232;10.566;2023-06-14T09:28:08;3.53;;;2.50;;
76852;SDS011;65825;52.232;10.566;2023-06-14T09:30:33;5.88;;;2.92;;
76852;SDS011;65825;52.232;10.566;2023-06-14T09:32:59;5.07;;;2.67;;
76852;SDS011;65825;52.232;10.566;2023-06-14T09:35:24;4.93;;;2.90;;
76852;SDS011;65825;52.232;10.566;2023-06-14T09:37:50;3.72;;;2.70;;
76852;SDS011;65825;52.232;10.566;2023-06-14T09:40:19;4.22;;;2.72;;
76852;SDS011;65825;52.232;10.566;2023-06-14T09:42:45;8.23;;;2.83;;
76852;SDS011;65825;52.232;10.566;2023-06-14T09:45:11;6.13;;;2.85;;
76852;SDS011;65825;52.232;10.566;2023-06-14T09:47:38;4.63;;;2.90;;
76852;SDS011;65825;52.232;10.566;2023-06-14T09:50:04;4.90;;;3.00;;
76852;SDS011;65825;52.232;10.566;2023-06-14T09:52:30;7.22;;;2.97;;
76852;SDS011;65825;52.232;10.566;2023-06-14T09:54:55;5.63;;;3.08;;
76852;SDS011;65825;52.232;10.566;2023-06-14T09:57:24;9.75;;;3.17;;
76852;SDS011;65825;52.232;10.566;2023-06-14T09:59:52;5.57;;;2.97;;
76852;SDS011;65825;52.232;10.566;2023-06-14T10:02:25;3.50;;;2.60;;
76852;SDS011;65825;52.232;10.566;2023-06-14T10:05:25;6.55;;;3.03;;
76852;SDS011;65825;52.232;10.566;2023-06-14T10:07:48;6.63;;;3.17;;
76852;SDS011;65825;52.232;10.566;2023-06-14T10:10:18;9.88;;;2.92;;
76852;SDS011;65825;52.232;10.566;2023-06-14T10:12:44;3.72;;;2.67;;
76852;SDS011;65825;52.232;10.566;2023-06-14T10:15:09;7.22;;;3.28;;
76852;SDS011;65825;52.232;10.566;2023-06-14T10:17:44;5.50;;;3.17;;
76852;SDS011;65825;52.232;10.566;2023-06-14T10:23:03;6.15;;;2.90;;
76852;SDS011;65825;52.232;10.566;2023-06-14T10:25:35;7.93;;;3.03;;
76852;SDS011;65825;52.232;10.566;2023-06-14T10:34:20;8.63;;;3.25;;
76852;SDS011;65825;52.232;10.566;2023-06-14T10:38:46;7.03;;;3.00;;
76852;SDS011;65825;52.232;10.566;2023-06-14T10:41:28;5.38;;;3.05;;
76852;SDS011;65825;52.232;10.566;2023-06-14T10:46:37;7.15;;;3.20;;
76852;SDS011;65825;52.232;10.566;2023-06-14T10:49:11;7.05;;;2.95;;
76852;SDS011;65825;52.232;10.566;2023-06-14T10:51:41;9.77;;;3.43;;
76852;SDS011;65825;52.232;10.566;2023-06-14T10:54:11;5.05;;;3.33;;
76852;SDS011;65825;52.232;10.566;2023-06-14T10:56:38;7.78;;;3.47;;
76852;SDS011;65825;52.232;10.566;2023-06-14T10:59:03;6.47;;;3.53;;
76852;SDS011;65825;52.232;10.566;2023-06-14T11:01:38;5.00;;;3.07;;
76852;SDS011;65825;52.232;10.566;2023-06-14T11:04:12;6.93;;;3.42;;
76852;SDS011;65825;52.232;10.566;2023-06-14T11:06:44;5.22;;;3.13;;
76852;SDS011;65825;52.232;10.566;2023-06-14T11:11:59;6.20;;;3.50;;
76852;SDS011;65825;52.232;10.566;2023-06-14T11:14:29;8.65;;;3.70;;
76852;SDS011;65825;52.232;10.566;2023-06-14T11:16:55;5.85;;;3.35;;
76852;SDS011;65825;52.232;10.566;2023-06-14T11:19:21;6.40;;;3.35;;
76852;SDS011;65825;52.232;10.566;2023-06-14T11:21:47;8.02;;;3.80;;
76852;SDS011;65825;52.232;10.566;2023-06-14T11:24:12;8.75;;;3.78;;
76852;SDS011;65825;52.232;10.566;2023-06-14T11:26:38;7.83;;;3.90;;
76852;SDS011;65825;52.232;10.566;2023-06-14T11:29:03;10.90;;;4.07;;
76852;SDS011;65825;52.232;10.566;2023-06-14T11:31:29;7.35;;;3.58;;
76852;SDS011;65825;52.232;10.566;2023-06-14T11:33:55;6.93;;;3.85;;
76852;SDS011;65825;52.232;10.566;2023-06-14T11:36:28;6.30;;;3.70;;
76852;SDS011;65825;52.232;10.566;2023-06-14T11:38:58;7.00;;;3.50;;
76852;SDS011;65825;52.232;10.566;2023-06-14T11:41:40;5.55;;;3.53;;
76852;SDS011;65825;52.232;10.566;2023-06-14T11:44:06;11.15;;;3.78;;
76852;SDS011;65825;52.232;10.566;2023-06-14T11:46:32;6.78;;;3.83;;
76852;SDS011;65825;52.232;10.566;2023-06-14T11:48:57;5.25;;;3.65;;
76852;SDS011;65825;52.232;10.566;2023-06-14T11:51:23;6.10;;;3.38;;
76852;SDS011;65825;52.232;10.566;2023-06-14T11:53:48;7.00;;;3.83;;
76852;SDS011;65825;52.232;10.566;2023-06-14T11:56:14;7.60;;;3.95;;
76852;SDS011;65825;52.232;10.566;2023-06-14T11:58:40;9.27;;;4.13;;
76852;SDS011;65825;52.232;10.566;2023-06-14T12:01:08;5.47;;;3.90;;
76852;SDS011;65825;52.232;10.566;2023-06-14T12:03:33;6.87;;;3.33;;
76852;SDS011;65825;52.232;10.566;2023-06-14T12:06:04;6.60;;;3.83;;
76852;SDS011;65825;52.232;10.566;2023-06-14T12:08:36;11.93;;;3.75;;
76852;SDS011;65825;52.232;10.566;2023-06-14T12:11:06;9.48;;;3.90;;
76852;SDS011;65825;52.232;10.566;2023-06-14T12:13:41;6.05;;;3.58;;
76852;SDS011;65825;52.232;10.566;2023-06-14T12:16:08;6.78;;;4.20;;
76852;SDS011;65825;52.232;10.566;2023-06-14T12:18:37;8.82;;;3.85;;
76852;SDS011;65825;52.232;10.566;2023-06-14T12:21:04;11.38;;;4.03;;
76852;SDS011;65825;52.232;10.566;2023-06-14T12:23:44;9.82;;;3.67;;
76852;SDS011;65825;52.232;10.566;2023-06-14T12:26:11;8.02;;;3.50;;
76852;SDS011;65825;52.232;10.566;2023-06-14T12:28:41;5.95;;;3.60;;
76852;SDS011;65825;52.232;10.566;2023-06-14T12:31:10;6.68;;;3.58;;
76852;SDS011;65825;52.232;10.566;2023-06-14T12:33:37;6.85;;;3.95;;
76852;SDS011;65825;52.232;10.566;2023-06-14T12:36:03;8.65;;;4.45;;
76852;SDS011;65825;52.232;10.566;2023-06-14T12:38:30;8.60;;;3.78;;
76852;SDS011;65825;52.232;10.566;2023-06-14T12:40:55;6.70;;;3.70;;
76852;SDS011;65825;52.232;10.566;2023-06-14T12:43:20;6.55;;;4.15;;
76852;SDS011;65825;52.232;10.566;2023-06-14T12:45:46;5.97;;;3.40;;
76852;SDS011;65825;52.232;10.566;2023-06-14T12:48:11;7.57;;;4.17;;
76852;SDS011;65825;52.232;10.566;2023-06-14T12:50:36;8.17;;;3.63;;
76852;SDS011;65825;52.232;10.566;2023-06-14T12:53:01;10.17;;;3.47;;
76852;SDS011;65825;52.232;10.566;2023-06-14T12:55:27;7.30;;;3.40;;
76852;SDS011;65825;52.232;10.566;2023-06-14T12:57:52;8.33;;;3.53;;
76852;SDS011;65825;52.232;10.566;2023-06-14T13:00:17;6.30;;;3.27;;
76852;SDS011;65825;52.232;10.566;2023-06-14T13:02:43;5.45;;;3.80;;
76852;SDS011;65825;52.232;10.566;2023-06-14T13:05:08;8.43;;;3.70;;
76852;SDS011;65825;52.232;10.566;2023-06-14T13:07:34;6.82;;;3.88;;
76852;SDS011;65825;52.232;10.566;2023-06-14T13:09:59;6.80;;;3.90;;
76852;SDS011;65825;52.232;10.566;2023-06-14T13:12:25;7.83;;;4.13;;
76852;SDS011;65825;52.232;10.566;2023-06-14T13:14:50;12.60;;;4.20;;
76852;SDS011;65825;52.232;10.566;2023-06-14T13:17:15;7.50;;;3.57;;
76852;SDS011;65825;52.232;10.566;2023-06-14T13:19:40;8.53;;;4.30;;
76852;SDS011;65825;52.232;10.566;2023-06-14T13:22:07;6.40;;;3.78;;
76852;SDS011;65825;52.232;10.566;2023-06-14T13:24:33;8.75;;;3.90;;
76852;SDS011;65825;52.232;10.566;2023-06-14T13:26:59;7.68;;;3.78;;
76852;SDS011;65825;52.232;10.566;2023-06-14T13:29:24;6.70;;;3.50;;
76852;SDS011;65825;52.232;10.566;2023-06-14T13:31:50;5.63;;;3.63;;
76852;SDS011;65825;52.232;10.566;2023-06-14T13:34:15;8.43;;;4.15;;
76852;SDS011;65825;52.232;10.566;2023-06-14T13:36:41;6.72;;;3.60;;
76852;SDS011;65825;52.232;10.566;2023-06-14T13:39:06;6.68;;;3.88;;
76852;SDS011;65825;52.232;10.566;2023-06-14T13:41:31;7.30;;;3.70;;
76852;SDS011;65825;52.232;10.566;2023-06-14T13:43:59;6.22;;;3.50;;
76852;SDS011;65825;52.232;10.566;2023-06-14T13:46:25;8.43;;;3.83;;
76852;SDS011;65825;52.232;10.566;2023-06-14T13:48:51;7.57;;;4.03;;
76852;SDS011;65825;52.232;10.566;2023-06-14T13:51:17;10.35;;;3.90;;
76852;SDS011;65825;52.232;10.566;2023-06-14T13:53:45;8.65;;;4.00;;
76852;SDS011;65825;52.232;10.566;2023-06-14T13:56:11;7.32;;;3.50;;
76852;SDS011;65825;52.232;10.566;2023-06-14T13:58:37;6.20;;;3.35;;
76852;SDS011;65825;52.232;10.566;2023-06-14T14:01:03;8.20;;;3.75;;
76852;SDS011;65825;52.232;10.566;2023-06-14T14:03:28;10.47;;;3.63;;
76852;SDS011;65825;52.232;10.566;2023-06-14T14:05:53;6.97;;;3.70;;
76852;SDS011;65825;52.232;10.566;2023-06-14T14:08:18;6.37;;;3.97;;
76852;SDS011;65825;52.232;10.566;2023-06-14T14:10:44;7.00;;;3.97;;
76852;SDS011;65825;52.232;10.566;2023-06-14T14:13:10;6.55;;;3.70;;
76852;SDS011;65825;52.232;10.566;2023-06-14T14:15:37;5.97;;;4.10;;
76852;SDS011;65825;52.232;10.566;2023-06-14T14:18:02;8.13;;;3.67;;
76852;SDS011;65825;52.232;10.566;2023-06-14T14:20:29;7.13;;;3.70;;
76852;SDS011;65825;52.232;10.566;2023-06-14T14:22:55;7.22;;;3.75;;
76852;SDS011;65825;52.232;10.566;2023-06-14T14:25:20;7.68;;;4.00;;
76852;SDS011;65825;52.232;10.566;2023-06-14T14:27:46;15.95;;;4.05;;
76852;SDS011;65825;52.232;10.566;2023-06-14T14:30:12;8.10;;;3.88;;
76852;SDS011;65825;52.232;10.566;2023-06-14T14:32:38;6.88;;;3.65;;
76852;SDS011;65825;52.232;10.566;2023-06-14T14:35:04;6.50;;;3.78;;
76852;SDS011;65825;52.232;10.566;2023-06-14T14:37:32;6.50;;;3.75;;
76852;SDS011;65825;52.232;10.566;2023-06-14T14:39:58;7.97;;;3.80;;
76852;SDS011;65825;52.232;10.566;2023-06-14T14:42:23;6.30;;;3.70;;
76852;SDS011;65825;52.232;10.566;2023-06-14T14:44:48;8.43;;;4.20;;
76852;SDS011;65825;52.232;10.566;2023-06-14T14:47:13;9.75;;;3.75;;
76852;SDS011;65825;52.232;10.566;2023-06-14T14:49:39;8.33;;;3.47;;
76852;SDS011;65825;52.232;10.566;2023-06-14T14:52:04;10.82;;;4.35;;
76852;SDS011;65825;52.232;10.566;2023-06-14T14:54:30;7.28;;;3.80;;
76852;SDS011;65825;52.232;10.566;2023-06-14T14:56:58;6.32;;;4.00;;
76852;SDS011;65825;52.232;10.566;2023-06-14T14:59:23;6.93;;;4.30;;
76852;SDS011;65825;52.232;10.566;2023-06-14T15:01:48;9.70;;;4.05;;
76852;SDS011;65825;52.232;10.566;2023-06-14T15:04:14;7.20;;;3.60;;
76852;SDS011;65825;52.232;10.566;2023-06-14T15:06:39;10.67;;;3.83;;
76852;SDS011;65825;52.232;10.566;2023-06-14T15:09:07;9.68;;;4.13;;
76852;SDS011;65825;52.232;10.566;2023-06-14T15:11:32;5.90;;;4.00;;
76852;SDS011;65825;52.232;10.566;2023-06-14T15:13:57;8.10;;;4.00;;
76852;SDS011;65825;52.232;10.566;2023-06-14T15:16:23;7.10;;;3.83;;